sensor_id;sensor_type;location;lat;lon;timestamp;temperature;humidity
31783;DHT22;18351;47.560;9.708;2023-07-22T00:00:29;16.90;99.90
31783;DHT22;18351;47.560;9.708;2023-07-22T00:02:55;16.90;99.90
31783;DHT22;18351;47.560;9.708;2023-07-22T00:05:20;17.00;99.90
31783;DHT22;18351;47.560;9.708;2023-07-22T00:07:49;17.00;99.90
31783;DHT22;18351;47.560;9.708;2023-07-22T00:10:15;16.80;99.90
31783;DHT22;18351;47.560;9.708;2023-07-22T00:12:40;16.70;99.90
31783;DHT22;18351;47.560;9.708;2023-07-22T00:15:07;16.70;99.90
31783;DHT22;18351;47.560;9.708;2023-07-22T00:17:32;16.70;99.90
31783;DHT22;18351;47.560;9.708;2023-07-22T00:19:58;16.70;99.90
31783;DHT22;18351;47.560;9.708;2023-07-22T00:22:25;16.70;99.90
31783;DHT22;18351;47.560;9.708;2023-07-22T00:24:52;16.60;99.90
31783;DHT22;18351;47.560;9.708;2023-07-22T00:27:17;16.70;99.90
31783;DHT22;18351;47.560;9.708;2023-07-22T00:29:43;16.70;99.90
31783;DHT22;18351;47.560;9.708;2023-07-22T00:32:09;16.80;99.90
31783;DHT22;18351;47.560;9.708;2023-07-22T00:34:35;16.80;99.90
31783;DHT22;18351;47.560;9.708;2023-07-22T00:37:02;16.90;99.90
31783;DHT22;18351;47.560;9.708;2023-07-22T00:39:27;16.90;99.90
31783;DHT22;18351;47.560;9.708;2023-07-22T00:41:53;16.90;99.90
31783;DHT22;18351;47.560;9.708;2023-07-22T00:44:18;17.00;99.90
31783;DHT22;18351;47.560;9.708;2023-07-22T00:46:44;17.00;99.90
31783;DHT22;18351;47.560;9.708;2023-07-22T00:49:10;17.00;99.90
31783;DHT22;18351;47.560;9.708;2023-07-22T00:51:37;17.10;99.90
31783;DHT22;18351;47.560;9.708;2023-07-22T00:54:03;17.10;99.90
31783;DHT22;18351;47.560;9.708;2023-07-22T00:56:33;17.20;99.90
31783;DHT22;18351;47.560;9.708;2023-07-22T00:59:01;17.20;99.90
31783;DHT22;18351;47.560;9.708;2023-07-22T01:01:27;17.20;99.90
31783;DHT22;18351;47.560;9.708;2023-07-22T01:03:52;17.20;99.90
31783;DHT22;18351;47.560;9.708;2023-07-22T01:06:19;17.20;99.90
31783;DHT22;18351;47.560;9.708;2023-07-22T01:08:45;17.20;99.90
31783;DHT22;18351;47.560;9.708;2023-07-22T01:11:12;17.10;99.90
31783;DHT22;18351;47.560;9.708;2023-07-22T01:13:38;17.00;99.90
31783;DHT22;18351;47.560;9.708;2023-07-22T01:16:05;17.00;99.90
31783;DHT22;18351;47.560;9.708;2023-07-22T01:18:31;17.10;99.90
31783;DHT22;18351;47.560;9.708;2023-07-22T01:21:00;17.10;99.90
31783;DHT22;18351;47.560;9.708;2023-07-22T01:23:26;17.00;99.90
31783;DHT22;18351;47.560;9.708;2023-07-22T01:25:52;17.00;99.90
31783;DHT22;18351;47.560;9.708;2023-07-22T01:28:18;17.00;99.90
31783;DHT22;18351;47.560;9.708;2023-07-22T01:30:45;17.00;99.90
31783;DHT22;18351;47.560;9.708;2023-07-22T01:33:11;17.00;99.90
31783;DHT22;18351;47.560;9.708;2023-07-22T01:35:37;17.00;99.90
31783;DHT22;18351;47.560;9.708;2023-07-22T01:38:02;17.00;99.90
31783;DHT22;18351;47.560;9.708;2023-07-22T01:40:28;17.00;99.90
31783;DHT22;18351;47.560;9.708;2023-07-22T01:42:53;17.00;99.90
31783;DHT22;18351;47.560;9.708;2023-07-22T01:45:19;16.90;99.90
31783;DHT22;18351;47.560;9.708;2023-07-22T01:47:45;16.80;99.90
31783;DHT22;18351;47.560;9.708;2023-07-22T01:50:10;16.70;99.90
31783;DHT22;18351;47.560;9.708;2023-07-22T01:52:36;16.60;99.90
31783;DHT22;18351;47.560;9.708;2023-07-22T01:55:02;16.60;99.90
31783;DHT22;18351;47.560;9.708;2023-07-22T01:57:31;16.60;99.90
31783;DHT22;18351;47.560;9.708;2023-07-22T01:59:57;16.60;99.90
31783;DHT22;18351;47.560;9.708;2023-07-22T02:02:22;16.40;99.90
31783;DHT22;18351;47.560;9.708;2023-07-22T02:04:48;16.40;99.90
31783;DHT22;18351;47.560;9.708;2023-07-22T02:07:13;16.40;99.90
31783;DHT22;18351;47.560;9.708;2023-07-22T02:09:39;16.30;99.90
31783;DHT22;18351;47.560;9.708;2023-07-22T02:12:05;16.30;99.90
31783;DHT22;18351;47.560;9.708;2023-07-22T02:14:32;16.20;99.90
31783;DHT22;18351;47.560;9.708;2023-07-22T02:16:58;16.00;99.90
31783;DHT22;18351;47.560;9.708;2023-07-22T02:19:24;16.00;99.90
31783;DHT22;18351;47.560;9.708;2023-07-22T02:21:50;16.00;99.90
31783;DHT22;18351;47.560;9.708;2023-07-22T02:24:15;16.10;99.90
31783;DHT22;18351;47.560;9.708;2023-07-22T02:26:41;16.10;99.90
31783;DHT22;18351;47.560;9.708;2023-07-22T02:29:07;16.10;99.90
31783;DHT22;18351;47.560;9.708;2023-07-22T02:31:33;16.10;99.90
31783;DHT22;18351;47.560;9.708;2023-07-22T02:33:58;16.10;99.90
31783;DHT22;18351;47.560;9.708;2023-07-22T02:36:24;16.10;99.90
31783;DHT22;18351;47.560;9.708;2023-07-22T02:38:50;16.00;99.90
31783;DHT22;18351;47.560;9.708;2023-07-22T02:41:15;16.00;99.90
31783;DHT22;18351;47.560;9.708;2023-07-22T02:43:41;16.00;99.90
31783;DHT22;18351;47.560;9.708;2023-07-22T02:46:07;15.90;99.90
31783;DHT22;18351;47.560;9.708;2023-07-22T02:48:33;15.90;99.90
31783;DHT22;18351;47.560;9.708;2023-07-22T02:51:17;15.90;99.90
31783;DHT22;18351;47.560;9.708;2023-07-22T02:53:43;15.70;99.90
31783;DHT22;18351;47.560;9.708;2023-07-22T02:56:10;15.70;99.90
31783;DHT22;18351;47.560;9.708;2023-07-22T02:58:36;15.70;99.90
31783;DHT22;18351;47.560;9.708;2023-07-22T03:01:03;15.70;99.90
31783;DHT22;18351;47.560;9.708;2023-07-22T03:03:30;15.70;99.90
31783;DHT22;18351;47.560;9.708;2023-07-22T03:05:59;15.70;99.90
31783;DHT22;18351;47.560;9.708;2023-07-22T03:08:24;15.70;99.90
31783;DHT22;18351;47.560;9.708;2023-07-22T03:10:50;15.70;99.90
31783;DHT22;18351;47.560;9.708;2023-07-22T03:13:16;15.60;99.90
31783;DHT22;18351;47.560;9.708;2023-07-22T03:15:42;15.70;99.90
31783;DHT22;18351;47.560;9.708;2023-07-22T03:18:08;15.70;99.90
31783;DHT22;18351;47.560;9.708;2023-07-22T03:20:39;15.70;99.90
31783;DHT22;18351;47.560;9.708;2023-07-22T03:23:05;15.70;99.90
31783;DHT22;18351;47.560;9.708;2023-07-22T03:25:32;15.70;99.90
31783;DHT22;18351;47.560;9.708;2023-07-22T03:28:02;15.70;99.90
31783;DHT22;18351;47.560;9.708;2023-07-22T03:30:28;15.70;99.90
31783;DHT22;18351;47.560;9.708;2023-07-22T03:32:54;15.70;99.90
31783;DHT22;18351;47.560;9.708;2023-07-22T03:35:19;15.70;99.90
31783;DHT22;18351;47.560;9.708;2023-07-22T03:37:45;15.60;99.90
31783;DHT22;18351;47.560;9.708;2023-07-22T03:40:11;15.60;99.90
31783;DHT22;18351;47.560;9.708;2023-07-22T03:42:39;15.60;99.90
31783;DHT22;18351;47.560;9.708;2023-07-22T03:45:06;15.50;99.90
31783;DHT22;18351;47.560;9.708;2023-07-22T03:47:32;15.50;99.90
31783;DHT22;18351;47.560;9.708;2023-07-22T03:49:58;15.40;99.90
31783;DHT22;18351;47.560;9.708;2023-07-22T03:52:24;15.40;99.90
31783;DHT22;18351;47.560;9.708;2023-07-22T03:54:49;15.40;99.90
31783;DHT22;18351;47.560;9.708;2023-07-22T03:57:15;15.30;99.90
31783;DHT22;18351;47.560;9.708;2023-07-22T03:59:40;15.20;99.90
31783;DHT22;18351;47.560;9.708;2023-07-22T04:02:06;15.20;99.90
31783;DHT22;18351;47.560;9.708;2023-07-22T04:04:31;15.20;99.90
31783;DHT22;18351;47.560;9.708;2023-07-22T04:06:57;15.20;99.90
31783;DHT22;18351;47.560;9.708;2023-07-22T04:09:22;15.20;99.90
31783;DHT22;18351;47.560;9.708;2023-07-22T04:11:48;15.10;99.90
31783;DHT22;18351;47.560;9.708;2023-07-22T04:14:14;15.20;99.90
31783;DHT22;18351;47.560;9.708;2023-07-22T04:16:39;15.10;99.90
31783;DHT22;18351;47.560;9.708;2023-07-22T04:19:05;15.10;99.90
31783;DHT22;18351;47.560;9.708;2023-07-22T04:21:31;15.10;99.90
31783;DHT22;18351;47.560;9.708;2023-07-22T04:23:57;15.10;99.90
31783;DHT22;18351;47.560;9.708;2023-07-22T04:26:23;15.00;99.90
31783;DHT22;18351;47.560;9.708;2023-07-22T04:28:49;15.00;99.90
31783;DHT22;18351;47.560;9.708;2023-07-22T04:31:14;15.20;99.90
31783;DHT22;18351;47.560;9.708;2023-07-22T04:33:40;15.20;99.90
31783;DHT22;18351;47.560;9.708;2023-07-22T04:36:07;15.30;99.90
31783;DHT22;18351;47.560;9.708;2023-07-22T04:38:32;15.40;99.90
31783;DHT22;18351;47.560;9.708;2023-07-22T04:40:58;15.30;99.90
31783;DHT22;18351;47.560;9.708;2023-07-22T04:43:25;15.40;99.90
31783;DHT22;18351;47.560;9.708;2023-07-22T04:45:52;15.50;99.90
31783;DHT22;18351;47.560;9.708;2023-07-22T04:48:20;15.50;99.90
31783;DHT22;18351;47.560;9.708;2023-07-22T04:50:46;15.60;99.90
31783;DHT22;18351;47.560;9.708;2023-07-22T04:53:12;15.60;99.90
31783;DHT22;18351;47.560;9.708;2023-07-22T04:55:41;15.70;99.90
31783;DHT22;18351;47.560;9.708;2023-07-22T04:58:07;15.70;99.90
31783;DHT22;18351;47.560;9.708;2023-07-22T05:00:33;15.80;99.90
31783;DHT22;18351;47.560;9.708;2023-07-22T05:02:59;15.90;99.90
31783;DHT22;18351;47.560;9.708;2023-07-22T05:05:25;16.10;99.90
31783;DHT22;18351;47.560;9.708;2023-07-22T05:07:50;16.00;99.90
31783;DHT22;18351;47.560;9.708;2023-07-22T05:10:18;16.10;99.90
31783;DHT22;18351;47.560;9.708;2023-07-22T05:12:44;16.20;99.90
31783;DHT22;18351;47.560;9.708;2023-07-22T05:15:11;16.30;99.90
31783;DHT22;18351;47.560;9.708;2023-07-22T05:17:37;16.20;99.90
31783;DHT22;18351;47.560;9.708;2023-07-22T05:20:04;16.20;99.90
31783;DHT22;18351;47.560;9.708;2023-07-22T05:22:37;16.20;99.90
31783;DHT22;18351;47.560;9.708;2023-07-22T05:25:03;16.30;99.90
31783;DHT22;18351;47.560;9.708;2023-07-22T05:27:30;16.20;99.90
31783;DHT22;18351;47.560;9.708;2023-07-22T05:29:55;16.20;99.90
31783;DHT22;18351;47.560;9.708;2023-07-22T05:32:23;16.30;99.90
31783;DHT22;18351;47.560;9.708;2023-07-22T05:34:49;16.30;99.90
31783;DHT22;18351;47.560;9.708;2023-07-22T05:37:14;16.40;99.90
31783;DHT22;18351;47.560;9.708;2023-07-22T05:39:40;16.40;99.90
31783;DHT22;18351;47.560;9.708;2023-07-22T05:42:06;16.40;99.90
31783;DHT22;18351;47.560;9.708;2023-07-22T05:44:31;16.50;99.90
31783;DHT22;18351;47.560;9.708;2023-07-22T05:46:57;16.60;99.90
31783;DHT22;18351;47.560;9.708;2023-07-22T05:49:23;16.70;99.90
31783;DHT22;18351;47.560;9.708;2023-07-22T05:51:48;16.80;99.90
31783;DHT22;18351;47.560;9.708;2023-07-22T05:54:14;16.80;99.90
31783;DHT22;18351;47.560;9.708;2023-07-22T05:56:39;16.80;99.90
31783;DHT22;18351;47.560;9.708;2023-07-22T05:59:06;16.70;99.90
31783;DHT22;18351;47.560;9.708;2023-07-22T06:01:32;16.70;99.90
31783;DHT22;18351;47.560;9.708;2023-07-22T06:03:57;16.80;99.90
31783;DHT22;18351;47.560;9.708;2023-07-22T06:06:23;16.90;99.90
31783;DHT22;18351;47.560;9.708;2023-07-22T06:08:49;17.00;99.90
31783;DHT22;18351;47.560;9.708;2023-07-22T06:11:15;17.00;99.90
31783;DHT22;18351;47.560;9.708;2023-07-22T06:13:40;17.20;99.90
31783;DHT22;18351;47.560;9.708;2023-07-22T06:16:06;17.30;99.90
31783;DHT22;18351;47.560;9.708;2023-07-22T06:18:31;17.40;99.90
31783;DHT22;18351;47.560;9.708;2023-07-22T06:20:57;17.50;99.90
31783;DHT22;18351;47.560;9.708;2023-07-22T06:23:23;17.70;99.90
31783;DHT22;18351;47.560;9.708;2023-07-22T06:25:48;17.90;99.90
31783;DHT22;18351;47.560;9.708;2023-07-22T06:28:14;18.20;99.90
31783;DHT22;18351;47.560;9.708;2023-07-22T06:30:39;18.30;99.90
31783;DHT22;18351;47.560;9.708;2023-07-22T06:33:05;18.50;99.90
31783;DHT22;18351;47.560;9.708;2023-07-22T06:35:31;18.80;99.90
31783;DHT22;18351;47.560;9.708;2023-07-22T06:37:56;19.10;99.90
31783;DHT22;18351;47.560;9.708;2023-07-22T06:40:22;19.20;99.90
31783;DHT22;18351;47.560;9.708;2023-07-22T06:42:47;19.40;99.90
31783;DHT22;18351;47.560;9.708;2023-07-22T06:45:13;19.60;99.90
31783;DHT22;18351;47.560;9.708;2023-07-22T06:47:38;19.90;99.90
31783;DHT22;18351;47.560;9.708;2023-07-22T06:50:04;20.10;99.90
31783;DHT22;18351;47.560;9.708;2023-07-22T06:52:33;20.40;99.90
31783;DHT22;18351;47.560;9.708;2023-07-22T06:54:59;20.80;99.90
31783;DHT22;18351;47.560;9.708;2023-07-22T06:57:24;21.10;99.90
31783;DHT22;18351;47.560;9.708;2023-07-22T06:59:54;21.20;99.90
31783;DHT22;18351;47.560;9.708;2023-07-22T07:02:20;21.10;99.90
31783;DHT22;18351;47.560;9.708;2023-07-22T07:04:46;20.90;99.90
31783;DHT22;18351;47.560;9.708;2023-07-22T07:07:12;21.00;99.90
31783;DHT22;18351;47.560;9.708;2023-07-22T07:09:38;21.00;99.90
31783;DHT22;18351;47.560;9.708;2023-07-22T07:12:04;21.00;99.90
31783;DHT22;18351;47.560;9.708;2023-07-22T07:14:32;21.10;99.90
31783;DHT22;18351;47.560;9.708;2023-07-22T07:16:57;21.10;99.90
31783;DHT22;18351;47.560;9.708;2023-07-22T07:19:23;21.20;99.90
31783;DHT22;18351;47.560;9.708;2023-07-22T07:21:48;21.30;99.90
31783;DHT22;18351;47.560;9.708;2023-07-22T07:24:15;21.40;99.90
31783;DHT22;18351;47.560;9.708;2023-07-22T07:26:40;21.50;99.90
31783;DHT22;18351;47.560;9.708;2023-07-22T07:29:06;21.60;99.90
31783;DHT22;18351;47.560;9.708;2023-07-22T07:31:32;21.70;99.90
31783;DHT22;18351;47.560;9.708;2023-07-22T07:33:57;21.90;99.90
31783;DHT22;18351;47.560;9.708;2023-07-22T07:36:23;21.90;99.90
31783;DHT22;18351;47.560;9.708;2023-07-22T07:38:49;21.80;99.90
31783;DHT22;18351;47.560;9.708;2023-07-22T07:41:14;21.70;99.90
31783;DHT22;18351;47.560;9.708;2023-07-22T07:43:41;21.80;99.90
31783;DHT22;18351;47.560;9.708;2023-07-22T07:46:18;21.90;99.90
31783;DHT22;18351;47.560;9.708;2023-07-22T07:48:45;21.90;99.90
31783;DHT22;18351;47.560;9.708;2023-07-22T07:51:12;22.00;99.90
31783;DHT22;18351;47.560;9.708;2023-07-22T07:53:38;22.20;99.90
31783;DHT22;18351;47.560;9.708;2023-07-22T07:56:04;22.30;99.90
31783;DHT22;18351;47.560;9.708;2023-07-22T07:58:29;22.30;99.90
31783;DHT22;18351;47.560;9.708;2023-07-22T08:00:55;22.30;99.90
31783;DHT22;18351;47.560;9.708;2023-07-22T08:03:20;22.50;99.90
31783;DHT22;18351;47.560;9.708;2023-07-22T08:05:46;22.30;99.90
31783;DHT22;18351;47.560;9.708;2023-07-22T08:08:12;22.40;99.90
31783;DHT22;18351;47.560;9.708;2023-07-22T08:10:37;22.70;99.90
31783;DHT22;18351;47.560;9.708;2023-07-22T08:13:04;22.80;99.90
31783;DHT22;18351;47.560;9.708;2023-07-22T08:15:29;22.80;99.90
31783;DHT22;18351;47.560;9.708;2023-07-22T08:17:55;22.50;99.90
31783;DHT22;18351;47.560;9.708;2023-07-22T08:20:20;22.40;99.90
31783;DHT22;18351;47.560;9.708;2023-07-22T08:22:46;22.40;99.90
31783;DHT22;18351;47.560;9.708;2023-07-22T08:25:12;22.40;99.90
31783;DHT22;18351;47.560;9.708;2023-07-22T08:27:37;22.50;99.90
31783;DHT22;18351;47.560;9.708;2023-07-22T08:30:03;22.50;99.90
31783;DHT22;18351;47.560;9.708;2023-07-22T08:32:29;22.50;99.90
31783;DHT22;18351;47.560;9.708;2023-07-22T08:34:54;22.60;99.90
31783;DHT22;18351;47.560;9.708;2023-07-22T08:37:20;22.60;99.90
31783;DHT22;18351;47.560;9.708;2023-07-22T08:39:45;22.70;99.90
31783;DHT22;18351;47.560;9.708;2023-07-22T08:42:11;22.80;99.90
31783;DHT22;18351;47.560;9.708;2023-07-22T08:44:43;23.00;99.90
31783;DHT22;18351;47.560;9.708;2023-07-22T08:47:13;23.20;99.90
31783;DHT22;18351;47.560;9.708;2023-07-22T08:49:43;23.30;99.90
31783;DHT22;18351;47.560;9.708;2023-07-22T08:52:12;23.40;99.90
31783;DHT22;18351;47.560;9.708;2023-07-22T08:54:40;23.60;99.90
31783;DHT22;18351;47.560;9.708;2023-07-22T08:57:06;23.80;99.90
31783;DHT22;18351;47.560;9.708;2023-07-22T08:59:33;24.00;99.30
31783;DHT22;18351;47.560;9.708;2023-07-22T09:01:59;24.10;99.60
31783;DHT22;18351;47.560;9.708;2023-07-22T09:04:25;24.40;99.90
31783;DHT22;18351;47.560;9.708;2023-07-22T09:06:50;24.60;99.00
31783;DHT22;18351;47.560;9.708;2023-07-22T09:09:17;24.70;99.50
31783;DHT22;18351;47.560;9.708;2023-07-22T09:11:45;24.70;98.10
31783;DHT22;18351;47.560;9.708;2023-07-22T09:14:12;24.70;98.10
31783;DHT22;18351;47.560;9.708;2023-07-22T09:16:38;24.70;97.40
31783;DHT22;18351;47.560;9.708;2023-07-22T09:19:04;24.60;97.10
31783;DHT22;18351;47.560;9.708;2023-07-22T09:21:30;24.60;96.50
31783;DHT22;18351;47.560;9.708;2023-07-22T09:23:56;24.60;94.70
31783;DHT22;18351;47.560;9.708;2023-07-22T09:26:22;24.60;95.80
31783;DHT22;18351;47.560;9.708;2023-07-22T09:28:57;24.60;94.90
31783;DHT22;18351;47.560;9.708;2023-07-22T09:31:25;24.40;94.70
31783;DHT22;18351;47.560;9.708;2023-07-22T09:33:51;24.40;89.60
31783;DHT22;18351;47.560;9.708;2023-07-22T09:36:19;24.20;86.80
31783;DHT22;18351;47.560;9.708;2023-07-22T09:38:45;24.10;86.60
31783;DHT22;18351;47.560;9.708;2023-07-22T09:41:28;24.20;90.80
31783;DHT22;18351;47.560;9.708;2023-07-22T09:43:54;24.10;88.10
31783;DHT22;18351;47.560;9.708;2023-07-22T09:46:19;24.20;91.10
31783;DHT22;18351;47.560;9.708;2023-07-22T09:48:46;24.30;91.40
31783;DHT22;18351;47.560;9.708;2023-07-22T09:51:13;24.30;88.90
31783;DHT22;18351;47.560;9.708;2023-07-22T09:53:44;24.40;91.70
31783;DHT22;18351;47.560;9.708;2023-07-22T09:56:10;24.50;92.90
31783;DHT22;18351;47.560;9.708;2023-07-22T09:58:36;24.60;91.30
31783;DHT22;18351;47.560;9.708;2023-07-22T10:01:03;24.60;90.40
31783;DHT22;18351;47.560;9.708;2023-07-22T10:03:31;24.80;89.40
31783;DHT22;18351;47.560;9.708;2023-07-22T10:06:00;24.90;87.70
31783;DHT22;18351;47.560;9.708;2023-07-22T10:08:30;24.90;82.40
31783;DHT22;18351;47.560;9.708;2023-07-22T10:11:00;24.70;85.30
31783;DHT22;18351;47.560;9.708;2023-07-22T10:13:28;24.70;82.20
31783;DHT22;18351;47.560;9.708;2023-07-22T10:15:53;24.40;80.90
31783;DHT22;18351;47.560;9.708;2023-07-22T10:18:21;24.40;82.20
31783;DHT22;18351;47.560;9.708;2023-07-22T10:20:47;24.40;85.70
31783;DHT22;18351;47.560;9.708;2023-07-22T10:23:13;24.30;84.60
31783;DHT22;18351;47.560;9.708;2023-07-22T10:25:40;24.20;84.70
31783;DHT22;18351;47.560;9.708;2023-07-22T10:28:06;24.30;83.30
31783;DHT22;18351;47.560;9.708;2023-07-22T10:30:33;24.50;77.90
31783;DHT22;18351;47.560;9.708;2023-07-22T10:32:59;24.50;80.20
31783;DHT22;18351;47.560;9.708;2023-07-22T10:37:56;24.50;77.60
31783;DHT22;18351;47.560;9.708;2023-07-22T10:40:31;24.70;81.60
31783;DHT22;18351;47.560;9.708;2023-07-22T10:43:03;24.80;79.60
31783;DHT22;18351;47.560;9.708;2023-07-22T10:45:31;24.90;77.30
31783;DHT22;18351;47.560;9.708;2023-07-22T10:50:38;24.50;72.70
31783;DHT22;18351;47.560;9.708;2023-07-22T10:53:05;24.60;76.00
31783;DHT22;18351;47.560;9.708;2023-07-22T10:55:31;24.80;78.80
31783;DHT22;18351;47.560;9.708;2023-07-22T10:58:03;25.00;72.40
31783;DHT22;18351;47.560;9.708;2023-07-22T11:00:30;25.10;74.30
31783;DHT22;18351;47.560;9.708;2023-07-22T11:03:12;25.30;75.10
31783;DHT22;18351;47.560;9.708;2023-07-22T11:05:52;25.40;70.10
31783;DHT22;18351;47.560;9.708;2023-07-22T11:08:35;25.60;67.20
31783;DHT22;18351;47.560;9.708;2023-07-22T11:11:02;25.80;67.80
31783;DHT22;18351;47.560;9.708;2023-07-22T11:13:28;25.80;61.90
31783;DHT22;18351;47.560;9.708;2023-07-22T11:15:58;25.80;66.70
31783;DHT22;18351;47.560;9.708;2023-07-22T11:18:38;25.80;66.00
31783;DHT22;18351;47.560;9.708;2023-07-22T11:21:12;25.90;65.90
31783;DHT22;18351;47.560;9.708;2023-07-22T11:23:37;25.90;61.50
31783;DHT22;18351;47.560;9.708;2023-07-22T11:26:03;25.90;61.70
31783;DHT22;18351;47.560;9.708;2023-07-22T11:28:30;25.90;60.20
31783;DHT22;18351;47.560;9.708;2023-07-22T11:30:56;26.00;63.50
31783;DHT22;18351;47.560;9.708;2023-07-22T11:33:22;25.90;65.80
31783;DHT22;18351;47.560;9.708;2023-07-22T11:35:47;26.00;64.10
31783;DHT22;18351;47.560;9.708;2023-07-22T11:38:13;26.00;64.60
31783;DHT22;18351;47.560;9.708;2023-07-22T11:40:38;26.10;64.50
31783;DHT22;18351;47.560;9.708;2023-07-22T11:43:04;26.20;63.30
31783;DHT22;18351;47.560;9.708;2023-07-22T11:45:31;26.10;60.50
31783;DHT22;18351;47.560;9.708;2023-07-22T11:47:57;26.10;69.50
31783;DHT22;18351;47.560;9.708;2023-07-22T11:50:33;26.10;60.10
31783;DHT22;18351;47.560;9.708;2023-07-22T11:52:59;26.20;60.90
31783;DHT22;18351;47.560;9.708;2023-07-22T11:55:24;26.10;64.20
31783;DHT22;18351;47.560;9.708;2023-07-22T11:57:54;26.20;63.40
31783;DHT22;18351;47.560;9.708;2023-07-22T12:00:20;26.30;61.20
31783;DHT22;18351;47.560;9.708;2023-07-22T12:02:46;25.70;60.70
31783;DHT22;18351;47.560;9.708;2023-07-22T12:05:20;25.70;64.80
31783;DHT22;18351;47.560;9.708;2023-07-22T12:07:46;25.80;61.20
31783;DHT22;18351;47.560;9.708;2023-07-22T12:10:12;26.00;63.80
31783;DHT22;18351;47.560;9.708;2023-07-22T12:12:42;25.90;62.10
31783;DHT22;18351;47.560;9.708;2023-07-22T12:17:55;25.90;64.10
31783;DHT22;18351;47.560;9.708;2023-07-22T12:20:33;25.90;64.60
31783;DHT22;18351;47.560;9.708;2023-07-22T12:22:59;25.90;62.90
31783;DHT22;18351;47.560;9.708;2023-07-22T12:25:25;26.00;66.10
31783;DHT22;18351;47.560;9.708;2023-07-22T12:27:50;26.10;63.60
31783;DHT22;18351;47.560;9.708;2023-07-22T12:30:16;26.10;62.10
31783;DHT22;18351;47.560;9.708;2023-07-22T12:32:42;26.10;62.20
31783;DHT22;18351;47.560;9.708;2023-07-22T12:35:08;26.10;63.80
31783;DHT22;18351;47.560;9.708;2023-07-22T12:37:35;26.10;63.60
31783;DHT22;18351;47.560;9.708;2023-07-22T12:40:01;26.20;65.00
31783;DHT22;18351;47.560;9.708;2023-07-22T12:42:26;26.40;66.20
31783;DHT22;18351;47.560;9.708;2023-07-22T12:44:52;26.70;63.30
31783;DHT22;18351;47.560;9.708;2023-07-22T12:47:18;26.80;62.20
31783;DHT22;18351;47.560;9.708;2023-07-22T12:49:43;26.40;59.20
31783;DHT22;18351;47.560;9.708;2023-07-22T12:52:09;26.30;63.10
31783;DHT22;18351;47.560;9.708;2023-07-22T12:54:35;26.10;61.20
31783;DHT22;18351;47.560;9.708;2023-07-22T12:57:01;26.10;63.70
31783;DHT22;18351;47.560;9.708;2023-07-22T12:59:27;26.30;61.50
31783;DHT22;18351;47.560;9.708;2023-07-22T13:01:53;26.30;61.20
31783;DHT22;18351;47.560;9.708;2023-07-22T13:04:19;26.10;61.20
31783;DHT22;18351;47.560;9.708;2023-07-22T13:06:45;26.10;63.50
31783;DHT22;18351;47.560;9.708;2023-07-22T13:09:10;26.10;64.80
31783;DHT22;18351;47.560;9.708;2023-07-22T13:11:36;26.30;63.50
31783;DHT22;18351;47.560;9.708;2023-07-22T13:14:02;26.60;63.40
31783;DHT22;18351;47.560;9.708;2023-07-22T13:16:28;26.70;64.70
31783;DHT22;18351;47.560;9.708;2023-07-22T13:18:53;26.60;60.60
31783;DHT22;18351;47.560;9.708;2023-07-22T13:21:19;26.40;63.40
31783;DHT22;18351;47.560;9.708;2023-07-22T13:23:44;26.40;65.80
31783;DHT22;18351;47.560;9.708;2023-07-22T13:26:10;26.40;63.30
31783;DHT22;18351;47.560;9.708;2023-07-22T13:28:35;26.50;65.60
31783;DHT22;18351;47.560;9.708;2023-07-22T13:31:01;26.60;65.30
31783;DHT22;18351;47.560;9.708;2023-07-22T13:33:27;26.70;62.70
31783;DHT22;18351;47.560;9.708;2023-07-22T13:35:52;26.80;62.70
31783;DHT22;18351;47.560;9.708;2023-07-22T13:38:18;26.90;61.60
31783;DHT22;18351;47.560;9.708;2023-07-22T13:40:44;26.90;62.40
31783;DHT22;18351;47.560;9.708;2023-07-22T13:43:09;27.00;64.10
31783;DHT22;18351;47.560;9.708;2023-07-22T13:45:35;26.90;60.80
31783;DHT22;18351;47.560;9.708;2023-07-22T13:48:01;26.60;61.40
31783;DHT22;18351;47.560;9.708;2023-07-22T13:50:27;26.70;62.90
31783;DHT22;18351;47.560;9.708;2023-07-22T13:52:52;26.90;64.20
31783;DHT22;18351;47.560;9.708;2023-07-22T13:55:18;26.90;59.80
31783;DHT22;18351;47.560;9.708;2023-07-22T13:57:43;26.80;63.10
31783;DHT22;18351;47.560;9.708;2023-07-22T14:00:09;26.80;62.30
31783;DHT22;18351;47.560;9.708;2023-07-22T14:02:37;26.90;61.60
31783;DHT22;18351;47.560;9.708;2023-07-22T14:05:02;26.90;64.80
31783;DHT22;18351;47.560;9.708;2023-07-22T14:07:28;26.90;62.10
31783;DHT22;18351;47.560;9.708;2023-07-22T14:09:54;26.80;60.30
31783;DHT22;18351;47.560;9.708;2023-07-22T14:12:20;26.70;62.00
31783;DHT22;18351;47.560;9.708;2023-07-22T14:14:46;26.70;64.10
31783;DHT22;18351;47.560;9.708;2023-07-22T14:17:11;26.90;64.10
31783;DHT22;18351;47.560;9.708;2023-07-22T14:19:37;27.00;62.70
31783;DHT22;18351;47.560;9.708;2023-07-22T14:22:03;27.00;60.30
31783;DHT22;18351;47.560;9.708;2023-07-22T14:24:29;27.10;61.60
31783;DHT22;18351;47.560;9.708;2023-07-22T14:26:55;27.10;62.30
31783;DHT22;18351;47.560;9.708;2023-07-22T14:29:20;27.20;61.90
31783;DHT22;18351;47.560;9.708;2023-07-22T14:31:46;27.20;62.00
31783;DHT22;18351;47.560;9.708;2023-07-22T14:34:11;27.30;61.90
31783;DHT22;18351;47.560;9.708;2023-07-22T14:36:37;27.30;61.70
31783;DHT22;18351;47.560;9.708;2023-07-22T14:39:03;27.10;59.70
31783;DHT22;18351;47.560;9.708;2023-07-22T14:41:29;27.00;63.00
31783;DHT22;18351;47.560;9.708;2023-07-22T14:43:55;27.00;60.50
31783;DHT22;18351;47.560;9.708;2023-07-22T14:46:21;27.00;62.00
31783;DHT22;18351;47.560;9.708;2023-07-22T14:48:46;27.00;60.70
31783;DHT22;18351;47.560;9.708;2023-07-22T14:51:13;27.00;62.20
31783;DHT22;18351;47.560;9.708;2023-07-22T14:53:38;27.10;62.80
31783;DHT22;18351;47.560;9.708;2023-07-22T14:56:04;27.20;61.10
31783;DHT22;18351;47.560;9.708;2023-07-22T14:58:31;27.20;61.70
31783;DHT22;18351;47.560;9.708;2023-07-22T15:00:57;27.20;60.20
31783;DHT22;18351;47.560;9.708;2023-07-22T15:03:23;27.30;60.40
31783;DHT22;18351;47.560;9.708;2023-07-22T15:05:48;27.30;60.10
31783;DHT22;18351;47.560;9.708;2023-07-22T15:08:14;27.40;60.00
31783;DHT22;18351;47.560;9.708;2023-07-22T15:10:40;27.40;59.80
31783;DHT22;18351;47.560;9.708;2023-07-22T15:13:05;27.50;59.70
31783;DHT22;18351;47.560;9.708;2023-07-22T15:15:31;27.40;57.40
31783;DHT22;18351;47.560;9.708;2023-07-22T15:17:56;27.00;56.90
31783;DHT22;18351;47.560;9.708;2023-07-22T15:20:22;27.00;60.20
31783;DHT22;18351;47.560;9.708;2023-07-22T15:22:47;26.90;58.60
31783;DHT22;18351;47.560;9.708;2023-07-22T15:25:13;26.90;62.70
31783;DHT22;18351;47.560;9.708;2023-07-22T15:27:38;26.90;63.10
31783;DHT22;18351;47.560;9.708;2023-07-22T15:30:04;27.00;63.60
31783;DHT22;18351;47.560;9.708;2023-07-22T15:32:30;26.90;62.70